Time;durP1;ratioP1;P1;durP2;ratioP2;P2;SDS_P1;SDS_P2;PMS_P1;PMS_P2;Temp;Humidity;BMP_temperature;BMP_pressure;BME280_temperature;BME280_humidity;BME280_pressure;Samples;Min_cycle;Max_cycle;Signal;HPM_P1;HPM_P2
2022/08/05 00:00:55;;;;;;;1.40;0.60;;;20.70;46.30;;;;;;4814044;29;20038;-76
2022/08/05 00:03:21;;;;;;;3.85;0.70;;;20.60;45.60;;;;;;4796156;29;20109;-76
2022/08/05 00:05:47;;;;;;;2.10;1.15;;;20.60;45.70;;;;;;4815345;29;20053;-76
2022/08/05 00:08:13;;;;;;;2.15;0.60;;;20.60;45.70;;;;;;4814834;29;20030;-76
2022/08/05 00:10:38;;;;;;;3.40;0.75;;;20.50;45.70;;;;;;4799087;29;20172;-76
2022/08/05 00:13:04;;;;;;;2.20;0.65;;;20.50;45.70;;;;;;4813288;29;20389;-75
2022/08/05 00:15:30;;;;;;;0.98;0.45;;;20.50;45.80;;;;;;4815763;29;20057;-76
2022/08/05 00:17:56;;;;;;;0.80;0.50;;;20.40;45.70;;;;;;4813940;29;20110;-76
2022/08/05 00:20:22;;;;;;;2.15;0.77;;;20.40;45.70;;;;;;4819061;29;20036;-76
2022/08/05 00:22:48;;;;;;;0.70;0.30;;;20.40;45.80;;;;;;4816097;29;20082;-76
2022/08/05 00:25:14;;;;;;;2.78;0.95;;;20.40;45.90;;;;;;4816916;29;20145;-76
2022/08/05 00:27:40;;;;;;;3.42;0.60;;;20.30;45.70;;;;;;4813490;29;20054;-76
2022/08/05 00:30:06;;;;;;;2.25;0.82;;;20.30;45.80;;;;;;4818220;29;20624;-76
2022/08/05 00:32:32;;;;;;;1.17;0.57;;;20.30;45.90;;;;;;4812302;29;20038;-76
2022/08/05 00:34:58;;;;;;;1.88;0.73;;;20.20;45.80;;;;;;4798231;29;20038;-76
2022/08/05 00:37:24;;;;;;;1.75;0.50;;;20.20;45.80;;;;;;4812070;29;20042;-76
2022/08/05 00:39:50;;;;;;;2.15;0.50;;;20.20;45.90;;;;;;4814497;29;20046;-76
2022/08/05 00:42:29;;;;;;;0.90;0.70;;;20.20;46.00;;;;;;4797347;29;20022;-76
2022/08/05 00:44:55;;;;;;;2.28;0.50;;;20.10;45.90;;;;;;4814102;29;20046;-76
2022/08/05 00:47:21;;;;;;;3.67;1.00;;;20.10;45.90;;;;;;4813337;29;20038;-76
2022/08/05 00:49:47;;;;;;;1.00;0.60;;;20.10;46.00;;;;;;4814469;29;20042;-76
2022/08/05 00:52:13;;;;;;;1.83;0.63;;;20.00;45.90;;;;;;4814609;29;20027;-76
2022/08/05 00:54:39;;;;;;;1.35;0.52;;;20.00;46.00;;;;;;4815739;29;20569;-76
2022/08/05 00:57:05;;;;;;;2.85;0.55;;;20.00;46.00;;;;;;4814489;29;20027;-76
2022/08/05 00:59:31;;;;;;;1.50;0.50;;;20.00;46.10;;;;;;4816838;29;20419;-76
2022/08/05 01:01:56;;;;;;;0.47;0.40;;;20.00;46.20;;;;;;4812191;29;20038;-76
2022/08/05 01:04:22;;;;;;;1.17;0.47;;;19.90;46.10;;;;;;4815237;29;20046;-76
2022/08/05 01:06:48;;;;;;;0.77;0.35;;;19.90;46.20;;;;;;4814239;29;20034;-76
2022/08/05 01:09:14;;;;;;;1.42;0.43;;;19.80;46.10;;;;;;4817611;29;20437;-76
2022/08/05 01:11:42;;;;;;;2.90;1.48;;;19.80;46.10;;;;;;4814279;29;20041;-76
2022/08/05 01:14:37;;;;;;;6.18;1.30;;;19.80;46.10;;;;;;4799017;29;20438;-76
2022/08/05 01:17:35;;;;;;;2.45;0.57;;;19.70;46.10;;;;;;4785901;29;20050;-76
2022/08/05 01:20:15;;;;;;;1.75;0.47;;;19.70;46.30;;;;;;4807380;29;20145;-77
2022/08/05 01:23:06;;;;;;;1.27;0.50;;;19.70;46.20;;;;;;4810941;29;20067;-76
2022/08/05 01:25:38;;;;;;;1.15;0.50;;;19.60;46.20;;;;;;4815019;29;20046;-76
2022/08/05 01:28:34;;;;;;;1.38;0.55;;;19.60;46.30;;;;;;4814469;29;20030;-76
2022/08/05 01:31:14;;;;;;;1.77;0.43;;;19.50;46.20;;;;;;4813897;29;20042;-76
2022/08/05 01:33:50;;;;;;;2.55;1.20;;;19.50;46.20;;;;;;4813084;29;20061;-76
2022/08/05 01:36:18;;;;;;;1.48;0.60;;;19.50;46.40;;;;;;4813936;29;20034;-76
2022/08/05 01:38:46;;;;;;;0.90;0.40;;;19.40;46.30;;;;;;4813792;29;20468;-76
2022/08/05 01:41:15;;;;;;;0.65;0.40;;;19.30;46.20;;;;;;4812899;29;20113;-76
2022/08/05 01:43:42;;;;;;;4.68;0.40;;;19.30;46.30;;;;;;4812683;29;20489;-76
2022/08/05 01:46:08;;;;;;;1.73;0.40;;;19.30;46.40;;;;;;4815207;29;20139;-76
2022/08/05 01:48:37;;;;;;;2.67;0.63;;;19.30;46.50;;;;;;4810440;29;20038;-75
2022/08/05 01:51:05;;;;;;;1.77;0.45;;;19.30;46.60;;;;;;4819155;29;20049;-75
2022/08/05 01:53:33;;;;;;;4.20;1.10;;;19.20;46.50;;;;;;4820478;29;20030;-75
2022/08/05 01:56:01;;;;;;;1.15;0.40;;;19.20;46.60;;;;;;4818267;29;20095;-76
2022/08/05 01:58:29;;;;;;;1.08;0.50;;;19.10;46.50;;;;;;4817367;29;20130;-76
2022/08/05 02:00:58;;;;;;;1.65;0.30;;;19.10;46.60;;;;;;4817998;29;20038;-75
2022/08/05 02:03:31;;;;;;;1.15;0.60;;;19.00;46.50;;;;;;4816681;29;20062;-77
2022/08/05 02:06:04;;;;;;;1.33;0.40;;;19.00;46.60;;;;;;4817916;29;20034;-76
2022/08/05 02:08:31;;;;;;;2.25;0.50;;;19.00;46.70;;;;;;4814954;29;20397;-76
2022/08/05 02:11:09;;;;;;;1.20;0.52;;;18.90;46.60;;;;;;4801396;29;20145;-76
2022/08/05 02:13:52;;;;;;;1.15;0.43;;;18.90;46.80;;;;;;4817319;29;20532;-76
2022/08/05 02:16:50;;;;;;;0.98;0.47;;;18.90;46.90;;;;;;4817435;29;20555;-76
2022/08/05 02:19:36;;;;;;;1.13;0.30;;;18.80;46.80;;;;;;4810762;29;20068;-76
2022/08/05 02:22:02;;;;;;;2.50;0.40;;;18.80;46.90;;;;;;4818401;29;20082;-76
2022/08/05 02:24:35;;;;;;;1.05;0.47;;;18.80;46.90;;;;;;4817978;29;20030;-76
2022/08/05 02:27:05;;;;;;;0.82;0.43;;;18.70;46.90;;;;;;4818135;29;20034;-76
2022/08/05 02:29:34;;;;;;;1.65;0.50;;;18.70;47.00;;;;;;4817386;29;20444;-76
2022/08/05 02:32:00;;;;;;;1.23;0.70;;;18.60;46.90;;;;;;4819325;29;21060;-77
2022/08/05 02:34:31;;;;;;;0.68;0.40;;;18.60;47.00;;;;;;4818313;29;20041;-76
2022/08/05 02:37:01;;;;;;;1.05;0.60;;;18.60;47.10;;;;;;4817239;29;20677;-76
2022/08/05 02:39:33;;;;;;;1.05;0.60;;;18.50;47.00;;;;;;4819860;29;20038;-75
2022/08/05 02:42:01;;;;;;;1.77;0.80;;;18.50;47.10;;;;;;4817772;29;20038;-76
2022/08/05 02:44:29;;;;;;;1.77;0.50;;;18.40;47.00;;;;;;4818411;29;20034;-75
2022/08/05 02:46:57;;;;;;;1.33;0.65;;;18.40;47.10;;;;;;4816229;29;20449;-76
2022/08/05 02:49:24;;;;;;;1.42;0.60;;;18.40;47.20;;;;;;4801676;29;20121;-76
2022/08/05 02:51:51;;;;;;;0.77;0.50;;;18.40;47.30;;;;;;4814527;29;20058;-76
2022/08/05 02:54:20;;;;;;;2.10;0.50;;;18.30;47.20;;;;;;4818744;29;20527;-74
2022/08/05 02:56:46;;;;;;;1.95;0.52;;;18.30;47.30;;;;;;4816220;29;20038;-74
2022/08/05 02:59:14;;;;;;;1.23;0.40;;;18.20;47.20;;;;;;4817139;29;20045;-74
2022/08/05 03:01:40;;;;;;;0.95;0.75;;;18.20;47.40;;;;;;4816226;29;20042;-75
2022/08/05 03:04:11;;;;;;;1.77;0.52;;;18.10;47.30;;;;;;4819922;29;20018;-75
2022/08/05 03:06:39;;;;;;;1.33;0.90;;;18.10;47.30;;;;;;4820157;29;20505;-74
2022/08/05 03:09:06;;;;;;;3.20;1.23;;;18.10;47.40;;;;;;4825916;29;20049;-75
2022/08/05 03:11:32;;;;;;;1.77;0.43;;;18.00;47.30;;;;;;4828586;29;20035;-76
2022/08/05 03:13:58;;;;;;;1.48;0.45;;;18.00;47.50;;;;;;4824896;29;20635;-74
2022/08/05 03:16:24;;;;;;;0.85;0.47;;;18.00;47.60;;;;;;4819258;29;20023;-74
2022/08/05 03:18:50;;;;;;;1.33;0.40;;;17.90;47.50;;;;;;4817437;29;20157;-75
2022/08/05 03:21:16;;;;;;;1.85;0.50;;;17.90;47.60;;;;;;4816428;29;20118;-75
2022/08/05 03:23:43;;;;;;;1.38;0.38;;;17.80;47.50;;;;;;4817293;29;20125;-74
2022/08/05 03:26:10;;;;;;;1.95;0.90;;;17.80;47.60;;;;;;4815994;29;20070;-74
2022/08/05 03:28:36;;;;;;;2.30;0.60;;;17.70;47.50;;;;;;4817855;29;20034;-75
2022/08/05 03:31:03;;;;;;;1.35;0.40;;;17.70;47.60;;;;;;4815793;29;20112;-74
2022/08/05 03:33:30;;;;;;;2.10;0.70;;;17.70;47.70;;;;;;4817731;29;20509;-74
2022/08/05 03:35:57;;;;;;;0.85;0.40;;;17.60;47.60;;;;;;4816573;29;20077;-74
2022/08/05 03:38:24;;;;;;;2.05;0.52;;;17.60;47.70;;;;;;4815321;29;20681;-74
2022/08/05 03:40:54;;;;;;;2.85;0.60;;;17.60;47.80;;;;;;4815976;29;20119;-75
2022/08/05 03:43:23;;;;;;;2.55;0.65;;;17.50;47.70;;;;;;4816065;29;20419;-74
2022/08/05 03:45:50;;;;;;;2.47;0.60;;;17.50;47.80;;;;;;4816174;29;20030;-75
2022/08/05 03:48:16;;;;;;;1.20;0.40;;;17.40;47.80;;;;;;4815778;29;20071;-74
2022/08/05 03:50:44;;;;;;;3.95;0.70;;;17.40;47.80;;;;;;4816083;29;20149;-74
2022/08/05 03:53:15;;;;;;;3.35;0.80;;;17.30;47.80;;;;;;4816848;29;20038;-74
2022/08/05 03:55:52;;;;;;;3.30;0.60;;;17.30;47.90;;;;;;4814188;29;20091;-74
2022/08/05 03:58:23;;;;;;;1.65;0.65;;;17.20;47.80;;;;;;4818092;29;20038;-75
2022/08/05 04:00:52;;;;;;;1.30;0.57;;;17.20;47.90;;;;;;4799383;29;20038;-74
2022/08/05 04:03:20;;;;;;;1.23;0.40;;;17.20;48.10;;;;;;4815302;29;20057;-75
2022/08/05 04:05:47;;;;;;;1.25;0.60;;;17.10;47.90;;;;;;4816233;29;20049;-74
2022/08/05 04:08:14;;;;;;;1.80;0.68;;;17.00;47.80;;;;;;4799079;29;20030;-75
2022/08/05 04:10:43;;;;;;;1.73;0.77;;;17.00;47.90;;;;;;4799681;29;20079;-75
2022/08/05 04:13:10;;;;;;;2.40;0.57;;;17.00;48.10;;;;;;4814165;29;20045;-75
2022/08/05 04:15:36;;;;;;;1.65;0.57;;;16.90;48.00;;;;;;4818472;29;20050;-75
2022/08/05 04:18:05;;;;;;;1.33;0.52;;;16.90;48.10;;;;;;4814700;29;20125;-75
2022/08/05 04:20:31;;;;;;;1.85;0.57;;;16.90;48.20;;;;;;4817379;29;20121;-75
2022/08/05 04:22:57;;;;;;;1.35;0.73;;;16.80;48.70;;;;;;4815737;29;20505;-74
2022/08/05 04:25:23;;;;;;;0.22;0.20;;;16.80;48.20;;;;;;4801046;29;20122;-75
2022/08/05 04:27:49;;;;;;;2.60;0.82;;;16.70;48.10;;;;;;4817161;29;20034;-74
2022/08/05 04:30:15;;;;;;;1.02;0.50;;;16.70;48.20;;;;;;4816349;29;20061;-75
2022/08/05 04:32:41;;;;;;;1.77;0.60;;;16.70;48.20;;;;;;4817732;29;20035;-76
2022/08/05 04:35:07;;;;;;;2.35;1.08;;;16.60;48.20;;;;;;4817009;29;20121;-76
2022/08/05 04:37:33;;;;;;;0.75;0.43;;;16.60;48.30;;;;;;4816039;29;20561;-76
2022/08/05 04:39:59;;;;;;;2.42;0.63;;;16.50;48.20;;;;;;4799112;29;20034;-76
2022/08/05 04:42:25;;;;;;;1.10;0.45;;;16.50;48.30;;;;;;4815347;29;20022;-76
2022/08/05 04:44:51;;;;;;;2.88;0.93;;;16.50;48.30;;;;;;4817603;29;20026;-75
2022/08/05 04:47:16;;;;;;;2.35;0.45;;;16.50;48.40;;;;;;4812711;29;20027;-76
2022/08/05 04:49:42;;;;;;;1.52;0.60;;;16.40;48.30;;;;;;4817114;29;20030;-75
2022/08/05 04:52:08;;;;;;;1.05;0.90;;;16.40;48.50;;;;;;4814577;29;20105;-75
2022/08/05 04:54:34;;;;;;;1.40;0.80;;;16.30;48.30;;;;;;4814723;29;20034;-74
2022/08/05 04:57:00;;;;;;;3.08;0.50;;;16.30;48.40;;;;;;4795826;29;20332;-74
2022/08/05 04:59:26;;;;;;;1.83;0.60;;;16.30;48.50;;;;;;4813899;29;20043;-74
2022/08/05 05:01:52;;;;;;;0.82;0.55;;;16.30;48.50;;;;;;4797502;29;20030;-75
2022/08/05 05:04:18;;;;;;;2.40;0.75;;;16.20;48.30;;;;;;4815991;29;20039;-75
2022/08/05 05:06:44;;;;;;;1.15;0.50;;;16.20;48.40;;;;;;4813774;29;20042;-75
2022/08/05 05:09:12;;;;;;;3.25;0.95;;;16.30;48.60;;;;;;4814199;29;20516;-75
2022/08/05 05:11:38;;;;;;;2.90;0.55;;;16.20;48.60;;;;;;4813779;29;20034;-75
2022/08/05 05:14:05;;;;;;;0.65;0.55;;;16.20;48.60;;;;;;4814598;29;20400;-75
2022/08/05 05:16:31;;;;;;;1.13;0.50;;;16.20;48.60;;;;;;4816683;29;20055;-75
2022/08/05 05:18:57;;;;;;;2.45;0.60;;;16.20;48.70;;;;;;4820395;29;20532;-74
2022/08/05 05:21:23;;;;;;;1.20;0.52;;;16.10;48.50;;;;;;4820018;29;20034;-76
2022/08/05 05:23:49;;;;;;;1.10;0.77;;;16.10;48.60;;;;;;4819696;29;20094;-74
2022/08/05 05:26:15;;;;;;;1.67;0.40;;;16.10;49.20;;;;;;4826124;29;20404;-75
2022/08/05 05:28:41;;;;;;;1.27;0.52;;;16.20;48.80;;;;;;4824081;29;20078;-74
2022/08/05 05:31:06;;;;;;;2.97;0.50;;;16.20;48.90;;;;;;4822450;29;20039;-75
2022/08/05 05:33:32;;;;;;;1.00;0.40;;;16.20;48.80;;;;;;4817417;29;20608;-75
2022/08/05 05:35:58;;;;;;;0.88;0.45;;;16.20;48.80;;;;;;4823326;29;20056;-75
2022/08/05 05:38:24;;;;;;;1.77;0.60;;;16.30;49.00;;;;;;4819165;29;20043;-75
2022/08/05 05:40:50;;;;;;;0.88;0.40;;;16.30;49.00;;;;;;4817503;29;20034;-75
2022/08/05 05:43:16;;;;;;;3.17;0.68;;;16.40;49.10;;;;;;4802803;29;20034;-76
2022/08/05 05:45:42;;;;;;;2.72;0.60;;;16.40;49.10;;;;;;4817848;29;20398;-76
2022/08/05 05:48:08;;;;;;;2.60;0.60;;;16.50;49.30;;;;;;4820035;29;20054;-78
2022/08/05 05:50:35;;;;;;;2.35;0.77;;;16.60;49.40;;;;;;4818435;29;20045;-77
2022/08/05 05:53:01;;;;;;;4.28;0.90;;;16.60;49.40;;;;;;4800214;29;20061;-77
2022/08/05 05:55:27;;;;;;;4.80;1.15;;;16.70;49.50;;;;;;4803688;29;20521;-77
2022/08/05 05:57:53;;;;;;;5.25;0.75;;;16.70;49.50;;;;;;4815784;29;20030;-77
2022/08/05 06:00:20;;;;;;;4.53;1.23;;;16.80;49.70;;;;;;4817210;29;20046;-78
2022/08/05 06:02:46;;;;;;;3.67;0.70;;;16.90;49.90;;;;;;4815341;29;20145;-77
2022/08/05 06:05:14;;;;;;;3.25;0.50;;;16.90;49.80;;;;;;4816265;29;20035;-77
2022/08/05 06:07:40;;;;;;;1.92;1.08;;;17.00;49.90;;;;;;4815122;29;20058;-75
2022/08/05 06:10:08;;;;;;;3.22;1.02;;;17.10;50.00;;;;;;4818875;29;20489;-74
2022/08/05 06:12:36;;;;;;;2.50;0.98;;;17.20;50.10;;;;;;4816669;29;20070;-76
2022/08/05 06:15:04;;;;;;;1.27;1.02;;;17.40;50.40;;;;;;4800674;29;20046;-76
2022/08/05 06:17:30;;;;;;;3.65;0.70;;;17.50;50.30;;;;;;4800911;29;20091;-76
2022/08/05 06:19:56;;;;;;;5.13;0.65;;;17.70;50.30;;;;;;4816885;29;20238;-77
2022/08/05 06:22:24;;;;;;;4.38;1.00;;;18.00;50.30;;;;;;4817635;29;20041;-76
2022/08/05 06:24:50;;;;;;;3.20;0.93;;;18.30;50.30;;;;;;4799895;29;20224;-76
2022/08/05 06:27:16;;;;;;;6.03;1.17;;;18.60;50.10;;;;;;4818300;29;20043;-76
2022/08/05 06:29:42;;;;;;;4.00;1.23;;;19.00;50.00;;;;;;4817660;29;20038;-75
2022/08/05 06:32:08;;;;;;;3.70;1.33;;;19.30;49.70;;;;;;4814224;29;20038;-76
2022/08/05 06:34:34;;;;;;;4.28;0.60;;;19.80;49.70;;;;;;4815835;29;20052;-76
2022/08/05 06:37:00;;;;;;;2.08;0.70;;;20.10;49.40;;;;;;4814425;29;20525;-78
2022/08/05 06:39:26;;;;;;;2.85;0.55;;;20.50;49.90;;;;;;4814708;29;20691;-77
2022/08/05 06:41:52;;;;;;;2.83;0.90;;;20.90;49.20;;;;;;4813470;29;20034;-77
2022/08/05 06:44:18;;;;;;;4.38;0.98;;;21.30;49.00;;;;;;4814393;29;20027;-76
2022/08/05 06:46:44;;;;;;;2.35;0.70;;;21.70;48.90;;;;;;4812628;29;20388;-76
2022/08/05 06:49:10;;;;;;;6.68;2.03;;;22.00;48.60;;;;;;4811391;29;20034;-76
2022/08/05 06:51:35;;;;;;;3.25;0.90;;;22.30;48.40;;;;;;4815497;29;20196;-75
2022/08/05 06:54:02;;;;;;;6.80;1.33;;;22.70;48.40;;;;;;4814651;29;20080;-79
2022/08/05 06:56:30;;;;;;;4.70;1.15;;;23.00;48.20;;;;;;4814924;29;20485;-78
2022/08/05 06:58:56;;;;;;;3.50;1.10;;;23.30;48.00;;;;;;4817310;29;20188;-77
2022/08/05 07:01:22;;;;;;;2.83;0.73;;;23.50;47.70;;;;;;4817099;29;20037;-77
2022/08/05 07:03:48;;;;;;;2.28;0.82;;;23.80;47.50;;;;;;4814637;29;20421;-77
2022/08/05 07:06:14;;;;;;;3.80;1.05;;;24.10;47.30;;;;;;4816146;29;20087;-77
2022/08/05 07:08:44;;;;;;;3.63;1.02;;;24.40;47.00;;;;;;4817834;29;20130;-77
2022/08/05 07:11:10;;;;;;;1.23;0.68;;;24.90;46.80;;;;;;4816219;29;20046;-77
2022/08/05 07:19:05;;;;;;;3.20;0.88;;;25.70;45.40;;;;;;4815263;29;20030;-77
2022/08/05 07:21:31;;;;;;;3.08;1.15;;;25.90;44.90;;;;;;4816751;29;20046;-78
2022/08/05 07:23:57;;;;;;;4.25;0.70;;;26.10;44.50;;;;;;4816155;29;20026;-77
2022/08/05 07:26:23;;;;;;;3.20;1.17;;;26.20;44.10;;;;;;4814795;29;20049;-77
2022/08/05 07:28:51;;;;;;;4.13;0.93;;;26.40;43.80;;;;;;4815581;29;20030;-76
2022/08/05 07:31:18;;;;;;;3.55;0.80;;;26.60;43.40;;;;;;4812387;29;20170;-76
2022/08/05 07:33:44;;;;;;;2.25;0.95;;;26.80;43.00;;;;;;4817051;29;20437;-78
2022/08/05 07:36:09;;;;;;;3.08;0.80;;;26.90;42.40;;;;;;4815960;29;20034;-77
2022/08/05 07:38:36;;;;;;;3.20;1.05;;;27.10;42.00;;;;;;4816441;29;20084;-77
2022/08/05 07:41:04;;;;;;;4.93;1.38;;;27.30;41.60;;;;;;4815811;29;20030;-78
2022/08/05 07:43:30;;;;;;;3.20;0.98;;;27.50;41.20;;;;;;4815017;29;20462;-78
2022/08/05 07:45:56;;;;;;;2.97;1.00;;;27.60;40.90;;;;;;4814227;29;20030;-75
2022/08/05 07:48:22;;;;;;;2.25;1.08;;;27.70;40.90;;;;;;4813229;29;20062;-76
2022/08/05 07:50:47;;;;;;;3.30;0.80;;;27.80;41.00;;;;;;4814814;29;20050;-76
2022/08/05 07:53:13;;;;;;;4.30;0.88;;;27.70;41.10;;;;;;4815677;29;20034;-76
2022/08/05 07:55:39;;;;;;;3.28;0.85;;;27.70;41.50;;;;;;4815559;29;20045;-75
2022/08/05 07:58:05;;;;;;;3.47;1.23;;;27.60;41.70;;;;;;4798105;29;20435;-75
2022/08/05 08:00:31;;;;;;;3.00;0.73;;;27.60;41.90;;;;;;4814901;29;20027;-76
2022/08/05 08:02:57;;;;;;;4.35;0.70;;;27.60;42.00;;;;;;4815635;29;20504;-79
2022/08/05 08:05:23;;;;;;;2.15;0.65;;;27.60;42.00;;;;;;4815056;29;20034;-76
2022/08/05 08:07:49;;;;;;;4.63;1.42;;;27.60;42.00;;;;;;4814450;29;20038;-77
2022/08/05 08:10:15;;;;;;;2.72;0.70;;;27.60;42.00;;;;;;4814946;29;20046;-78
2022/08/05 08:12:40;;;;;;;2.25;0.60;;;27.50;42.00;;;;;;4813615;29;20066;-77
2022/08/05 08:15:08;;;;;;;3.45;1.00;;;27.50;42.60;;;;;;4814939;29;20086;-78
2022/08/05 08:17:34;;;;;;;3.20;0.95;;;27.50;42.00;;;;;;4810651;29;20121;-78
2022/08/05 08:20:03;;;;;;;3.83;1.13;;;27.50;41.80;;;;;;4815602;29;20090;-78
2022/08/05 08:22:29;;;;;;;3.33;0.80;;;27.50;41.70;;;;;;4815420;29;20217;-75
2022/08/05 08:24:55;;;;;;;2.85;0.90;;;27.40;41.50;;;;;;4798633;29;20034;-76
2022/08/05 08:27:21;;;;;;;5.03;1.52;;;27.30;41.40;;;;;;4814290;29;20083;-76
2022/08/05 08:29:47;;;;;;;3.13;0.95;;;27.20;41.40;;;;;;4816371;29;20054;-76
2022/08/05 08:32:13;;;;;;;2.78;0.85;;;27.10;41.50;;;;;;4815255;29;20367;-78
2022/08/05 08:34:39;;;;;;;2.95;0.90;;;26.80;41.50;;;;;;4816715;29;20042;-78
2022/08/05 08:37:05;;;;;;;3.03;0.85;;;26.60;41.60;;;;;;4814363;29;20148;-79
2022/08/05 08:39:31;;;;;;;1.85;0.75;;;26.40;41.80;;;;;;4819279;29;20038;-77
2022/08/05 08:41:59;;;;;;;3.70;1.13;;;26.30;41.90;;;;;;4815087;29;20045;-78
2022/08/05 08:44:30;;;;;;;3.42;0.80;;;26.10;42.00;;;;;;4815219;29;20034;-77
2022/08/05 08:46:57;;;;;;;3.55;0.68;;;25.90;42.00;;;;;;4797064;29;20026;-77
2022/08/05 08:49:24;;;;;;;3.50;0.90;;;25.80;42.10;;;;;;4800658;29;20042;-77
2022/08/05 08:52:29;;;;;;;3.30;0.80;;;25.70;42.20;;;;;;4815280;29;20069;-79
2022/08/05 08:54:55;;;;;;;4.78;0.85;;;25.60;42.30;;;;;;4752844;30;20091;-77
2022/08/05 08:57:21;;;;;;;4.40;1.45;;;25.50;42.50;;;;;;4807349;29;20046;-77
2022/08/05 08:59:49;;;;;;;4.50;0.90;;;25.40;42.50;;;;;;4822870;29;20034;-76
2022/08/05 09:02:17;;;;;;;2.50;0.68;;;25.30;42.50;;;;;;4828780;29;20034;-78
2022/08/05 09:04:44;;;;;;;3.63;0.90;;;25.20;42.70;;;;;;4836153;29;20038;-78
2022/08/05 09:07:10;;;;;;;3.53;1.00;;;25.10;42.90;;;;;;4821927;29;20018;-79
2022/08/05 09:09:36;;;;;;;1.75;0.68;;;24.90;43.00;;;;;;4840051;29;20059;-76
2022/08/05 09:12:04;;;;;;;2.47;1.08;;;24.80;42.90;;;;;;4836208;29;20086;-79
2022/08/05 09:14:31;;;;;;;1.38;0.80;;;24.70;42.50;;;;;;4825770;29;20201;-79
2022/08/05 09:17:03;;;;;;;4.20;1.27;;;24.50;42.00;;;;;;4804131;29;20034;-79
2022/08/05 09:19:29;;;;;;;2.70;1.08;;;24.50;41.80;;;;;;4818884;29;20031;-79
2022/08/05 09:21:55;;;;;;;3.92;0.80;;;24.40;41.50;;;;;;4813949;29;20500;-82
2022/08/05 09:24:20;;;;;;;3.25;0.95;;;24.20;41.10;;;;;;4817409;29;20045;-81
2022/08/05 09:26:50;;;;;;;4.35;0.77;;;24.10;41.00;;;;;;4821705;29;20034;-83
2022/08/05 09:29:16;;;;;;;2.42;0.85;;;24.10;41.00;;;;;;4814966;29;20042;-83
2022/08/05 09:31:45;;;;;;;3.72;0.98;;;24.10;41.00;;;;;;4798328;29;20071;-82
2022/08/05 09:34:12;;;;;;;4.38;1.40;;;24.10;41.00;;;;;;4814480;29;20054;-81
2022/08/05 09:36:40;;;;;;;10.88;0.90;;;24.10;40.90;;;;;;4816160;29;20457;-81
2022/08/05 09:39:09;;;;;;;5.10;1.05;;;24.10;40.70;;;;;;4816781;29;20043;-81
2022/08/05 09:42:00;;;;;;;3.00;0.85;;;24.10;40.60;;;;;;4814400;29;20043;-81
2022/08/05 09:44:39;;;;;;;2.20;1.25;;;24.20;40.50;;;;;;4814152;29;20034;-81
2022/08/05 09:47:17;;;;;;;3.42;1.00;;;24.30;40.60;;;;;;4812572;29;20450;-80
2022/08/05 09:49:49;;;;;;;2.53;0.80;;;24.40;40.70;;;;;;4812824;29;20627;-80
2022/08/05 09:52:21;;;;;;;2.85;1.08;;;24.60;40.90;;;;;;4813139;29;20103;-81
2022/08/05 09:55:03;;;;;;;7.00;1.73;;;24.70;40.90;;;;;;4813969;29;20027;-83
2022/08/05 09:57:39;;;;;;;4.93;0.90;;;24.70;40.80;;;;;;4814484;29;20042;-79
2022/08/05 10:00:06;;;;;;;3.83;1.35;;;24.70;41.00;;;;;;4812256;29;20822;-78
2022/08/05 10:02:46;;;;;;;3.90;1.20;;;24.60;40.90;;;;;;4815327;29;20037;-78
2022/08/05 10:05:16;;;;;;;2.53;0.88;;;24.80;41.20;;;;;;4814551;29;20030;-77
2022/08/05 10:08:03;;;;;;;1.95;0.55;;;24.90;41.30;;;;;;4814086;29;20103;-77
2022/08/05 10:10:38;;;;;;;3.50;1.02;;;25.00;41.20;;;;;;4814229;29;20069;-76
2022/08/05 10:13:05;;;;;;;3.35;1.40;;;25.10;41.20;;;;;;4816190;29;20060;-75
2022/08/05 10:15:35;;;;;;;4.90;1.02;;;25.10;41.20;;;;;;4816355;29;20030;-75
2022/08/05 10:18:04;;;;;;;3.17;0.90;;;25.00;41.20;;;;;;4816165;29;20041;-75
2022/08/05 10:20:38;;;;;;;2.25;0.90;;;24.90;41.00;;;;;;4803381;29;20560;-78
2022/08/05 10:23:04;;;;;;;2.15;0.90;;;25.00;41.10;;;;;;4815517;29;20038;-78
2022/08/05 10:25:30;;;;;;;4.75;0.88;;;25.20;40.90;;;;;;4819690;29;20030;-78
2022/08/05 10:27:57;;;;;;;4.47;0.75;;;25.30;40.60;;;;;;4817014;29;20049;-77
2022/08/05 10:30:23;;;;;;;5.97;0.80;;;25.60;40.40;;;;;;4819682;29;20509;-77
2022/08/05 10:32:49;;;;;;;4.25;1.30;;;25.70;40.20;;;;;;4803132;29;20045;-78
2022/08/05 10:35:15;;;;;;;3.00;0.73;;;26.00;39.90;;;;;;4816502;29;20034;-78
2022/08/05 10:37:42;;;;;;;1.45;0.63;;;26.20;40.20;;;;;;4816975;29;20459;-78
2022/08/05 10:40:28;;;;;;;3.40;0.73;;;26.10;39.30;;;;;;4799706;29;20038;-77
2022/08/05 10:43:03;;;;;;;4.68;0.70;;;26.00;39.40;;;;;;4816909;29;20056;-77
2022/08/05 10:45:29;;;;;;;3.78;1.00;;;25.70;39.60;;;;;;4817082;29;20037;-79
2022/08/05 10:47:55;;;;;;;3.47;0.70;;;25.50;39.70;;;;;;4814786;29;20026;-77
2022/08/05 10:50:21;;;;;;;1.65;0.50;;;25.30;39.80;;;;;;4819136;29;20053;-78
2022/08/05 10:52:55;;;;;;;3.78;1.05;;;25.30;39.80;;;;;;4801876;29;20062;-77
2022/08/05 10:55:22;;;;;;;3.85;1.35;;;25.30;39.70;;;;;;4818232;29;20050;-77
2022/08/05 10:58:04;;;;;;;1.70;0.35;;;25.30;39.70;;;;;;4816526;29;20030;-78
2022/08/05 11:00:30;;;;;;;5.70;0.85;;;25.20;39.80;;;;;;4816453;29;20038;-76
2022/08/05 11:03:05;;;;;;;3.40;1.20;;;25.10;39.90;;;;;;4817890;29;20069;-78
2022/08/05 11:05:32;;;;;;;2.55;0.60;;;25.10;39.90;;;;;;4815472;29;20425;-77
2022/08/05 11:08:03;;;;;;;4.00;0.70;;;25.10;40.10;;;;;;4815043;29;20057;-78
2022/08/05 11:10:31;;;;;;;3.05;0.73;;;25.10;39.90;;;;;;4799875;29;20080;-80
2022/08/05 11:12:58;;;;;;;1.83;0.45;;;25.30;39.70;;;;;;4815039;29;20067;-80
2022/08/05 11:15:33;;;;;;;3.80;0.70;;;25.40;39.50;;;;;;4815836;29;20537;-78
2022/08/05 11:18:26;;;;;;;2.58;0.82;;;25.50;39.30;;;;;;4814342;29;20034;-77
2022/08/05 11:20:53;;;;;;;3.17;0.75;;;25.70;39.10;;;;;;4813594;29;20106;-78
2022/08/05 11:23:55;;;;;;;2.65;0.65;;;25.80;39.10;;;;;;4816439;29;20027;-77
2022/08/05 11:26:23;;;;;;;6.03;0.73;;;25.90;38.90;;;;;;4814186;29;20050;-81
2022/08/05 11:28:51;;;;;;;1.02;0.50;;;26.00;38.90;;;;;;4815477;29;20643;-78
2022/08/05 11:31:17;;;;;;;1.92;0.60;;;26.10;38.80;;;;;;4815951;29;20053;-78
2022/08/05 11:33:50;;;;;;;2.95;0.63;;;26.20;38.70;;;;;;4816665;29;20026;-77
2022/08/05 11:36:19;;;;;;;3.67;0.90;;;26.30;38.50;;;;;;4815950;29;20038;-77
2022/08/05 11:38:47;;;;;;;1.55;0.47;;;26.50;38.40;;;;;;4818186;29;20053;-78
2022/08/05 11:41:19;;;;;;;1.42;0.70;;;26.70;38.20;;;;;;4817932;29;20098;-77
2022/08/05 11:44:09;;;;;;;3.72;0.75;;;26.70;37.90;;;;;;4814848;29;20031;-77
2022/08/05 11:46:49;;;;;;;1.73;0.50;;;26.60;37.80;;;;;;4815921;29;20118;-78
2022/08/05 11:49:17;;;;;;;1.52;0.70;;;26.60;37.90;;;;;;4818634;29;20157;-79
2022/08/05 11:51:46;;;;;;;4.20;0.93;;;26.60;38.00;;;;;;4815927;29;20091;-79
2022/08/05 11:54:20;;;;;;;1.05;0.38;;;26.60;37.80;;;;;;4815729;29;20045;-80
2022/08/05 11:56:50;;;;;;;2.35;0.63;;;26.70;37.80;;;;;;4798756;29;20443;-78
2022/08/05 11:59:27;;;;;;;0.45;0.30;;;26.70;37.70;;;;;;4816806;29;20064;-79
2022/08/05 12:02:06;;;;;;;2.13;0.40;;;26.60;37.70;;;;;;4813763;29;20407;-79
2022/08/05 12:04:40;;;;;;;3.60;1.00;;;26.60;37.80;;;;;;4815492;29;20284;-78
2022/08/05 12:07:07;;;;;;;1.10;0.70;;;26.60;38.00;;;;;;4814641;29;20516;-78
2022/08/05 12:09:38;;;;;;;1.85;0.60;;;26.60;38.00;;;;;;4814705;29;20042;-77
2022/08/05 12:12:06;;;;;;;1.40;0.40;;;26.50;38.10;;;;;;4813832;29;20481;-77
2022/08/05 12:14:36;;;;;;;1.73;0.85;;;26.30;38.10;;;;;;4815302;29;20038;-78
2022/08/05 12:17:07;;;;;;;2.30;0.80;;;26.10;38.20;;;;;;4812041;29;20035;-78
2022/08/05 12:19:44;;;;;;;2.40;0.70;;;25.90;38.20;;;;;;4814897;29;20034;-79
2022/08/05 12:22:11;;;;;;;2.63;0.50;;;25.80;38.20;;;;;;4814022;29;20538;-78
2022/08/05 12:24:45;;;;;;;1.90;0.43;;;25.70;38.40;;;;;;4814842;29;20117;-78
2022/08/05 12:27:24;;;;;;;0.70;0.47;;;25.70;38.30;;;;;;4814733;29;20035;-78
2022/08/05 12:30:07;;;;;;;3.60;0.98;;;25.90;38.10;;;;;;4814709;29;20077;-78
2022/08/05 12:32:41;;;;;;;0.47;0.35;;;26.10;37.90;;;;;;4815700;29;20039;-78
2022/08/05 12:35:08;;;;;;;0.88;0.32;;;26.30;37.90;;;;;;4798114;29;20426;-78
2022/08/05 12:37:34;;;;;;;1.23;0.57;;;26.50;37.80;;;;;;4798251;29;20569;-80
2022/08/05 12:40:00;;;;;;;3.13;0.70;;;26.60;37.50;;;;;;4815795;29;20117;-77
2022/08/05 12:42:29;;;;;;;3.15;1.10;;;26.70;37.50;;;;;;4814413;29;20234;-77
2022/08/05 12:45:05;;;;;;;2.10;0.60;;;26.80;37.50;;;;;;4815197;29;20038;-77
2022/08/05 12:47:31;;;;;;;1.00;0.40;;;27.00;37.30;;;;;;4813187;29;20034;-77
2022/08/05 12:49:58;;;;;;;1.42;0.60;;;27.30;37.20;;;;;;4815714;29;20070;-77
2022/08/05 12:52:24;;;;;;;2.90;0.68;;;27.50;36.90;;;;;;4814820;29;20053;-77
2022/08/05 12:54:50;;;;;;;1.77;0.50;;;27.70;36.70;;;;;;4816136;29;20485;-79
2022/08/05 12:57:17;;;;;;;0.63;0.30;;;27.80;36.50;;;;;;4815338;29;20065;-78
2022/08/05 12:59:54;;;;;;;1.33;0.55;;;27.70;36.40;;;;;;4817340;29;20030;-77
2022/08/05 13:02:23;;;;;;;1.25;0.40;;;27.60;36.40;;;;;;4803074;29;20072;-78